Time;durP1;ratioP1;P1;durP2;ratioP2;P2;SDS_P1;SDS_P2;PMS_P1;PMS_P2;Temp;Humidity;BMP_temperature;BMP_pressure;BME280_temperature;BME280_humidity;BME280_pressure;Samples;Min_cycle;Max_cycle;Signal;HPM_P1;HPM_P2
2022/05/24 00:00:09;;;;;;;7.18;5.20;;;;;;;-145.52;100.00;57022.44;5071159;28;20067;-59
2022/05/24 00:02:34;;;;;;;9.27;5.82;;;;;;;-145.52;100.00;57022.44;5071530;28;20067;-59
2022/05/24 00:05:00;;;;;;;9.20;6.30;;;;;;;-145.52;100.00;57022.44;5070597;28;20036;-61
2022/05/24 00:07:25;;;;;;;9.40;5.28;;;;;;;-145.52;100.00;57022.44;5051988;28;20032;-59
2022/05/24 00:09:51;;;;;;;5.05;3.50;;;;;;;-145.52;100.00;57022.44;5077332;28;20139;-59
2022/05/24 00:12:16;;;;;;;7.65;4.70;;;;;;;-145.52;100.00;57022.44;5071939;28;20048;-59
2022/05/24 00:17:26;;;;;;;6.57;4.68;;;;;;;-145.52;100.00;57022.44;5072029;28;20177;-59
2022/05/24 00:19:51;;;;;;;7.70;4.80;;;;;;;-145.52;100.00;57022.44;5072070;28;20032;-58
2022/05/24 00:22:17;;;;;;;9.15;5.10;;;;;;;-145.52;100.00;57022.44;5074446;28;20098;-59
2022/05/24 00:24:42;;;;;;;7.97;4.78;;;;;;;-145.52;100.00;57022.44;5072248;28;20079;-58
2022/05/24 00:27:08;;;;;;;8.73;5.47;;;;;;;-145.52;100.00;57022.44;5069938;28;20097;-59
2022/05/24 00:29:34;;;;;;;8.73;4.90;;;;;;;-145.52;100.00;57022.44;5071931;28;20119;-59
2022/05/24 00:31:59;;;;;;;9.80;5.30;;;;;;;-145.52;100.00;57022.44;5071080;28;20123;-59
2022/05/24 00:34:25;;;;;;;9.55;5.80;;;;;;;-145.52;100.00;57022.44;5070836;28;20106;-62
2022/05/24 00:36:51;;;;;;;8.45;5.78;;;;;;;-145.52;100.00;57022.44;5051806;28;20041;-60
2022/05/24 00:39:16;;;;;;;9.45;5.55;;;;;;;-145.52;100.00;57022.44;5056858;28;20080;-60
2022/05/24 00:42:04;;;;;;;11.05;7.15;;;;;;;-145.52;100.00;57022.44;5070063;28;20036;-59
2022/05/24 00:44:40;;;;;;;9.65;6.45;;;;;;;-145.52;100.00;57022.44;5061687;28;20056;-59
2022/05/24 00:47:13;;;;;;;10.25;6.47;;;;;;;-145.52;100.00;57022.44;5069769;28;20124;-63
2022/05/24 00:49:45;;;;;;;7.93;5.63;;;;;;;-145.52;100.00;57022.44;5070482;28;20036;-59
2022/05/24 00:52:18;;;;;;;8.43;5.53;;;;;;;-145.52;100.00;57022.44;5079186;28;20029;-58
2022/05/24 00:54:45;;;;;;;10.50;5.82;;;;;;;-145.52;100.00;57022.44;5074500;28;20097;-58
2022/05/24 00:57:17;;;;;;;11.50;7.30;;;;;;;-145.52;100.00;57022.44;5071409;28;20032;-59
2022/05/24 00:59:51;;;;;;;9.90;6.53;;;;;;;-145.52;100.00;57022.44;5071463;28;20521;-58
2022/05/24 01:02:16;;;;;;;9.52;5.57;;;;;;;-145.52;100.00;57022.44;5075923;28;20536;-60
2022/05/24 01:04:42;;;;;;;11.10;7.53;;;;;;;-145.52;100.00;57022.44;5075368;28;20028;-58
2022/05/24 01:07:08;;;;;;;12.20;6.65;;;;;;;-145.52;100.00;57022.44;5079643;28;20502;-60
2022/05/24 01:09:44;;;;;;;11.82;6.68;;;;;;;-145.52;100.00;57022.44;5075044;28;20056;-59
2022/05/24 01:12:21;;;;;;;11.68;6.65;;;;;;;-145.52;100.00;57022.44;5076041;28;20028;-59
2022/05/24 01:14:48;;;;;;;9.95;5.53;;;;;;;-145.52;100.00;57022.44;5075007;28;20035;-59
2022/05/24 01:17:13;;;;;;;8.57;5.53;;;;;;;-145.52;100.00;57022.44;5082893;28;20032;-58
2022/05/24 01:19:46;;;;;;;8.05;4.95;;;;;;;-145.52;100.00;57022.44;5088252;28;20032;-59
2022/05/24 01:22:25;;;;;;;10.13;5.28;;;;;;;-145.52;100.00;57022.44;5096317;28;20035;-59
2022/05/24 01:25:08;;;;;;;8.40;5.75;;;;;;;-145.52;100.00;57022.44;5090248;28;20040;-59
2022/05/24 01:27:35;;;;;;;8.43;5.60;;;;;;;-145.52;100.00;57022.44;5093994;28;20024;-60
2022/05/24 01:30:03;;;;;;;9.50;6.15;;;;;;;-145.52;100.00;57022.44;5065615;28;20048;-60
2022/05/24 01:37:58;;;;;;;6.93;4.78;;;;;;;-145.52;100.00;57022.44;5075665;28;20048;-59
2022/05/24 01:40:23;;;;;;;13.20;6.57;;;;;;;-145.52;100.00;57022.44;5074413;28;20036;-59
2022/05/24 01:42:49;;;;;;;9.82;5.70;;;;;;;-145.52;100.00;57022.44;5071226;28;20099;-60
2022/05/24 01:45:20;;;;;;;8.20;5.88;;;;;;;-145.52;100.00;57022.44;5067809;28;20124;-59
2022/05/24 01:47:50;;;;;;;10.20;5.18;;;;;;;-145.52;100.00;57022.44;5071930;28;20024;-59
2022/05/24 01:50:19;;;;;;;8.38;5.13;;;;;;;-145.52;100.00;57022.44;5071901;28;20062;-60
2022/05/24 01:52:54;;;;;;;8.60;5.72;;;;;;;-145.52;100.00;57022.44;5072292;28;20032;-60
2022/05/24 01:55:25;;;;;;;7.55;4.72;;;;;;;-145.52;100.00;57022.44;5073006;28;20045;-60
2022/05/24 01:57:54;;;;;;;11.23;5.88;;;;;;;-145.52;100.00;57022.44;5066605;28;20123;-60
2022/05/24 02:00:20;;;;;;;8.50;5.95;;;;;;;-145.52;100.00;57022.44;5072841;28;20119;-60
2022/05/24 02:02:46;;;;;;;10.80;6.90;;;;;;;-145.52;100.00;57022.44;5056359;28;20139;-59
2022/05/24 02:05:13;;;;;;;9.27;6.45;;;;;;;-145.52;100.00;57022.44;5074556;28;20127;-59
2022/05/24 02:07:39;;;;;;;10.88;6.57;;;;;;;-145.52;100.00;57022.44;5071231;28;20036;-59
2022/05/24 02:10:06;;;;;;;9.15;5.60;;;;;;;-145.52;100.00;57022.44;5052820;28;20057;-59
2022/05/24 02:12:47;;;;;;;7.90;5.18;;;;;;;-145.52;100.00;57022.44;5071721;28;20028;-59
2022/05/24 02:15:28;;;;;;;7.88;5.13;;;;;;;-145.52;100.00;57022.44;5070811;28;20086;-61
2022/05/24 02:18:08;;;;;;;8.77;4.72;;;;;;;-145.52;100.00;57022.44;5072492;28;20040;-60
2022/05/24 02:20:37;;;;;;;8.05;5.47;;;;;;;-145.52;100.00;57022.44;5073044;28;20056;-59
2022/05/24 02:23:03;;;;;;;8.25;5.88;;;;;;;-145.52;100.00;57022.44;5075273;28;20040;-59
2022/05/24 02:25:36;;;;;;;10.15;5.53;;;;;;;-145.52;100.00;57022.44;5073587;28;20082;-59
2022/05/24 02:28:03;;;;;;;9.13;5.22;;;;;;;-145.52;100.00;57022.44;5073183;28;20115;-60
2022/05/24 02:30:31;;;;;;;8.07;5.25;;;;;;;-145.52;100.00;57022.44;5073177;28;21962;-59
2022/05/24 02:32:57;;;;;;;9.20;5.05;;;;;;;-145.52;100.00;57022.44;5087252;28;20032;-59
2022/05/24 02:35:23;;;;;;;7.55;4.65;;;;;;;-145.52;100.00;57022.44;5091928;28;20119;-59
2022/05/24 02:37:49;;;;;;;9.43;6.22;;;;;;;-145.52;100.00;57022.44;5071723;28;20468;-59
2022/05/24 02:42:59;;;;;;;8.48;5.22;;;;;;;-145.52;100.00;57022.44;5072854;28;20060;-60
2022/05/24 02:45:25;;;;;;;8.93;6.03;;;;;;;-145.52;100.00;57022.44;5072092;28;20119;-59
2022/05/24 02:47:50;;;;;;;10.70;6.30;;;;;;;-145.52;100.00;57022.44;5072285;28;20443;-60
2022/05/24 02:50:17;;;;;;;9.05;6.50;;;;;;;-145.52;100.00;57022.44;5071413;28;20046;-59
2022/05/24 02:52:42;;;;;;;9.02;5.65;;;;;;;-145.52;100.00;57022.44;5077857;28;20487;-59
2022/05/24 02:55:09;;;;;;;11.00;6.35;;;;;;;-145.52;100.00;57022.44;5043044;28;20062;-59
2022/05/24 02:57:35;;;;;;;9.50;6.30;;;;;;;-145.52;100.00;57022.44;5071865;28;20121;-60
2022/05/24 03:00:00;;;;;;;10.80;6.65;;;;;;;-145.52;100.00;57022.44;5074954;28;20082;-58
2022/05/24 03:02:26;;;;;;;9.82;6.55;;;;;;;-145.52;100.00;57022.44;5077754;28;20044;-59
2022/05/24 03:04:51;;;;;;;11.50;6.00;;;;;;;-145.52;100.00;57022.44;5073290;28;20545;-58
2022/05/24 03:10:01;;;;;;;12.27;7.75;;;;;;;-145.52;100.00;57022.44;5058134;28;20396;-58
2022/05/24 03:15:11;;;;;;;10.10;6.07;;;;;;;-145.52;100.00;57022.44;5072319;28;20450;-58
2022/05/24 03:17:37;;;;;;;7.22;5.47;;;;;;;-145.52;100.00;57022.44;5070983;28;20041;-60
2022/05/24 03:20:04;;;;;;;7.40;5.43;;;;;;;-145.52;100.00;57022.44;5059633;28;20040;-59
2022/05/24 03:22:30;;;;;;;7.15;4.70;;;;;;;-145.52;100.00;57022.44;5044753;28;20062;-58
2022/05/24 03:24:55;;;;;;;8.05;5.03;;;;;;;-145.52;100.00;57022.44;5074463;28;20040;-59
2022/05/24 03:27:21;;;;;;;9.25;6.10;;;;;;;-145.52;100.00;57022.44;5073471;28;20039;-60
2022/05/24 03:29:48;;;;;;;7.18;5.50;;;;;;;-145.52;100.00;57022.44;5056912;28;20025;-59
2022/05/24 03:32:16;;;;;;;9.35;6.85;;;;;;;-145.52;100.00;57022.44;5071278;28;20040;-59
2022/05/24 03:34:41;;;;;;;6.50;4.90;;;;;;;-145.52;100.00;57022.44;5071692;28;20041;-60
2022/05/24 03:37:07;;;;;;;7.50;5.35;;;;;;;-145.52;100.00;57022.44;5072167;28;20051;-59
2022/05/24 03:39:34;;;;;;;6.45;5.00;;;;;;;-145.52;100.00;57022.44;5071315;28;20032;-59
2022/05/24 03:42:00;;;;;;;9.02;6.32;;;;;;;-145.52;100.00;57022.44;5075224;28;20036;-59
2022/05/24 03:44:25;;;;;;;9.88;6.32;;;;;;;-145.52;100.00;57022.44;5045265;28;20082;-58
2022/05/24 03:46:52;;;;;;;8.10;5.53;;;;;;;-145.52;100.00;57022.44;5070477;28;20040;-59
2022/05/24 03:49:18;;;;;;;10.15;6.72;;;;;;;-145.52;100.00;57022.44;5075403;28;20036;-61
2022/05/24 03:51:43;;;;;;;10.20;6.63;;;;;;;-145.52;100.00;57022.44;5078057;28;20464;-58
2022/05/24 03:54:09;;;;;;;9.38;5.50;;;;;;;-145.52;100.00;57022.44;5054730;28;20036;-59
2022/05/24 03:56:36;;;;;;;10.57;6.75;;;;;;;-145.52;100.00;57022.44;5073773;28;20452;-59
2022/05/24 03:59:02;;;;;;;8.73;6.45;;;;;;;-145.52;100.00;57022.44;5070980;28;20130;-59
2022/05/24 04:01:27;;;;;;;8.57;6.40;;;;;;;-145.52;100.00;57022.44;5091282;28;20428;-59
2022/05/24 04:03:53;;;;;;;12.18;8.77;;;;;;;-145.52;100.00;57022.44;5081767;28;20417;-59
2022/05/24 04:06:19;;;;;;;10.50;8.45;;;;;;;-145.52;100.00;57022.44;5070911;28;20552;-60
2022/05/24 04:08:45;;;;;;;14.18;9.98;;;;;;;-145.52;100.00;57022.44;5073065;28;20488;-59
2022/05/24 04:11:12;;;;;;;13.65;9.80;;;;;;;-145.52;100.00;57022.44;5071558;28;20120;-58
2022/05/24 04:13:41;;;;;;;10.98;8.18;;;;;;;-145.52;100.00;57022.44;5051030;28;20036;-59
2022/05/24 04:16:07;;;;;;;10.52;8.85;;;;;;;-145.52;100.00;57022.44;5071962;28;20106;-59
2022/05/24 04:18:34;;;;;;;10.68;8.15;;;;;;;-145.52;100.00;57022.44;5054999;28;20099;-62
2022/05/24 04:21:00;;;;;;;9.98;6.93;;;;;;;-145.52;100.00;57022.44;5071238;28;20147;-58
2022/05/24 04:23:25;;;;;;;10.48;7.90;;;;;;;-145.52;100.00;57022.44;5069861;28;20127;-60
2022/05/24 04:25:53;;;;;;;12.52;8.52;;;;;;;-145.52;100.00;57022.44;5070793;28;20146;-59
2022/05/24 04:28:20;;;;;;;12.55;8.98;;;;;;;-145.52;100.00;57022.44;5073853;28;20046;-59
2022/05/24 04:30:47;;;;;;;12.10;7.13;;;;;;;-145.52;100.00;57022.44;5067502;28;20044;-60
2022/05/24 04:33:14;;;;;;;9.07;6.35;;;;;;;-145.52;100.00;57022.44;5072149;28;20440;-60
2022/05/24 04:35:39;;;;;;;9.40;6.60;;;;;;;-145.52;100.00;57022.44;5072902;28;20024;-59
2022/05/24 04:38:05;;;;;;;11.15;6.18;;;;;;;-145.52;100.00;57022.44;5071451;28;20407;-65
2022/05/24 04:43:14;;;;;;;10.23;6.82;;;;;;;-145.52;100.00;57022.44;5094843;28;20400;-60
2022/05/24 04:45:40;;;;;;;8.32;7.25;;;;;;;-145.52;100.00;57022.44;5091105;28;20467;-59
2022/05/24 04:48:06;;;;;;;8.52;6.18;;;;;;;-145.52;100.00;57022.44;5077543;28;20029;-60
2022/05/24 04:50:32;;;;;;;7.18;6.03;;;;;;;-145.52;100.00;57022.44;5084905;28;20063;-60
2022/05/24 04:52:58;;;;;;;9.52;6.72;;;;;;;-145.52;100.00;57022.44;5093920;28;20387;-58
2022/05/24 04:55:26;;;;;;;9.27;7.72;;;;;;;-145.52;100.00;57022.44;5089836;28;20040;-60
2022/05/24 04:57:53;;;;;;;10.02;7.93;;;;;;;-145.52;100.00;57022.44;5090677;28;20119;-60
2022/05/24 05:00:20;;;;;;;11.43;7.00;;;;;;;-145.52;100.00;57022.44;5071577;28;20090;-60
2022/05/24 05:02:46;;;;;;;10.65;5.95;;;;;;;-145.52;100.00;57022.44;5070312;28;20032;-60
2022/05/24 05:05:13;;;;;;;9.75;6.50;;;;;;;-145.52;100.00;57022.44;5075782;28;20090;-63
2022/05/24 05:07:39;;;;;;;13.65;6.57;;;;;;;-145.52;100.00;57022.44;5074756;28;20448;-59
2022/05/24 05:10:06;;;;;;;9.32;6.70;;;;;;;-145.52;100.00;57022.44;5094866;28;20502;-60
2022/05/24 05:12:31;;;;;;;7.65;5.78;;;;;;;-145.52;100.00;57022.44;5064488;28;20240;-60
2022/05/24 05:14:57;;;;;;;9.13;7.35;;;;;;;-145.52;100.00;57022.44;5037038;28;20467;-59
2022/05/24 05:17:23;;;;;;;7.53;6.53;;;;;;;-145.52;100.00;57022.44;5093258;28;20047;-59
2022/05/24 05:19:49;;;;;;;5.95;3.95;;;;;;;-145.52;100.00;57022.44;5096378;28;20055;-59
2022/05/24 05:22:16;;;;;;;10.05;7.82;;;;;;;-145.52;100.00;57022.44;5078859;28;20036;-60
2022/05/24 05:24:41;;;;;;;8.65;6.07;;;;;;;-145.52;100.00;57022.44;5095167;28;20028;-59
2022/05/24 05:27:07;;;;;;;8.27;6.45;;;;;;;-145.52;100.00;57022.44;5084345;28;20043;-60
2022/05/24 05:32:20;;;;;;;7.85;6.40;;;;;;;-145.52;100.00;57022.44;5072855;28;20047;-59
2022/05/24 05:34:47;;;;;;;8.15;5.43;;;;;;;-145.52;100.00;57022.44;5077593;28;20024;-59
2022/05/24 05:37:13;;;;;;;9.38;6.05;;;;;;;-145.52;100.00;57022.44;5091944;28;20108;-61
2022/05/24 05:39:39;;;;;;;9.07;6.68;;;;;;;-145.52;100.00;57022.44;5073564;28;20051;-61
2022/05/24 05:42:05;;;;;;;14.63;6.45;;;;;;;-145.52;100.00;57022.44;5072918;28;20045;-59
2022/05/24 05:44:31;;;;;;;7.50;6.05;;;;;;;-145.52;100.00;57022.44;5039744;28;20074;-60
2022/05/24 05:46:56;;;;;;;6.75;4.68;;;;;;;-145.52;100.00;57022.44;5056074;28;20117;-59
2022/05/24 05:49:22;;;;;;;8.35;6.50;;;;;;;-145.52;100.00;57022.44;5072421;28;20075;-59
2022/05/24 05:51:48;;;;;;;9.10;4.10;;;;;;;-145.52;100.00;57022.44;5072446;28;20068;-59
2022/05/24 05:54:13;;;;;;;9.77;5.70;;;;;;;-145.52;100.00;57022.44;5073711;28;20028;-59
2022/05/24 05:56:40;;;;;;;7.25;4.63;;;;;;;-145.52;100.00;57022.44;5074276;28;20032;-58
2022/05/24 05:59:06;;;;;;;7.00;6.03;;;;;;;-145.52;100.00;57022.44;5057163;28;20472;-58
2022/05/24 06:01:31;;;;;;;8.63;4.78;;;;;;;-145.52;100.00;57022.44;5075406;28;20110;-59
2022/05/24 06:03:59;;;;;;;7.47;3.92;;;;;;;-145.52;100.00;57022.44;5074058;28;20037;-58
2022/05/24 06:06:28;;;;;;;5.55;4.35;;;;;;;-145.52;100.00;57022.44;5073616;28;20078;-58
2022/05/24 06:08:54;;;;;;;8.32;4.47;;;;;;;-145.52;100.00;57022.44;5084615;28;20141;-60
2022/05/24 06:11:20;;;;;;;7.45;4.50;;;;;;;-145.52;100.00;57022.44;5053296;28;20516;-59
2022/05/24 06:13:46;;;;;;;7.07;3.85;;;;;;;-145.52;100.00;57022.44;5090408;28;20031;-59
2022/05/24 06:16:13;;;;;;;8.30;5.20;;;;;;;-145.52;100.00;57022.44;5073428;28;20123;-59
2022/05/24 06:18:39;;;;;;;6.75;4.25;;;;;;;-145.52;100.00;57022.44;5073188;28;20454;-60
2022/05/24 06:21:05;;;;;;;5.82;3.58;;;;;;;-145.52;100.00;57022.44;5073387;28;20103;-59
2022/05/24 06:23:31;;;;;;;7.32;5.15;;;;;;;-145.52;100.00;57022.44;5073509;28;20029;-59
2022/05/24 06:25:57;;;;;;;4.93;3.92;;;;;;;-145.52;100.00;57022.44;5073547;28;20037;-59
2022/05/24 06:28:22;;;;;;;6.13;4.30;;;;;;;-145.52;100.00;57022.44;5075035;28;20063;-60
2022/05/24 06:30:48;;;;;;;6.53;3.83;;;;;;;-145.52;100.00;57022.44;5073436;28;20037;-59
2022/05/24 06:33:14;;;;;;;9.82;4.72;;;;;;;-145.52;100.00;57022.44;5074931;28;20051;-60
2022/05/24 06:35:41;;;;;;;5.72;3.83;;;;;;;-145.52;100.00;57022.44;5073294;28;20036;-59
2022/05/24 06:38:07;;;;;;;6.25;4.55;;;;;;;-145.52;100.00;57022.44;5072651;28;20558;-60
2022/05/24 06:40:33;;;;;;;6.63;4.22;;;;;;;-145.52;100.00;57022.44;5070667;28;20040;-61
2022/05/24 06:42:59;;;;;;;5.57;4.05;;;;;;;-145.52;100.00;57022.44;5069628;28;20036;-59
2022/05/24 06:45:25;;;;;;;7.28;3.95;;;;;;;-145.52;100.00;57022.44;5052140;28;20041;-59
2022/05/24 06:47:51;;;;;;;9.05;4.63;;;;;;;-145.52;100.00;57022.44;5053509;28;20036;-59
2022/05/24 06:50:16;;;;;;;12.13;4.68;;;;;;;-145.52;100.00;57022.44;5073127;28;20433;-61
2022/05/24 06:52:43;;;;;;;6.80;4.50;;;;;;;-145.52;100.00;57022.44;5055903;28;20484;-63
2022/05/24 06:55:09;;;;;;;8.10;4.00;;;;;;;-145.52;100.00;57022.44;5071931;28;20028;-60
2022/05/24 06:57:35;;;;;;;6.68;3.53;;;;;;;-145.52;100.00;57022.44;5039804;28;20036;-62
2022/05/24 07:02:46;;;;;;;6.00;3.67;;;;;;;-145.52;100.00;57022.44;5056572;28;20044;-63
2022/05/24 07:05:16;;;;;;;5.88;3.10;;;;;;;-145.52;100.00;57022.44;5043925;28;20037;-63
2022/05/24 07:07:42;;;;;;;4.88;2.70;;;;;;;-145.52;100.00;57022.44;5063903;28;20089;-60
2022/05/24 07:10:12;;;;;;;3.95;2.60;;;;;;;-145.52;100.00;57022.44;5053864;28;20131;-63
2022/05/24 07:12:38;;;;;;;4.07;2.75;;;;;;;-145.52;100.00;57022.44;5061794;28;20054;-61
2022/05/24 07:15:04;;;;;;;5.85;2.45;;;;;;;-145.52;100.00;57022.44;5071243;28;20428;-62
2022/05/24 07:17:30;;;;;;;4.18;2.55;;;;;;;-145.52;100.00;57022.44;5072254;28;20122;-61
2022/05/24 07:19:55;;;;;;;5.22;2.53;;;;;;;-145.52;100.00;57022.44;5070862;28;20111;-61
2022/05/24 07:22:21;;;;;;;4.05;2.65;;;;;;;-145.52;100.00;57022.44;5070640;28;20457;-62
2022/05/24 07:24:49;;;;;;;4.15;2.42;;;;;;;-145.52;100.00;57022.44;5047810;28;20036;-64
2022/05/24 07:27:17;;;;;;;4.43;2.65;;;;;;;-145.52;100.00;57022.44;5052509;28;20033;-61
2022/05/24 07:29:43;;;;;;;4.95;2.78;;;;;;;-145.52;100.00;57022.44;5070654;28;20113;-61
2022/05/24 07:32:09;;;;;;;5.38;2.45;;;;;;;-145.52;100.00;57022.44;5072017;28;20537;-61
2022/05/24 07:35:14;;;;;;;4.00;2.65;;;;;;;-145.52;100.00;57022.44;5074074;28;20068;-61
2022/05/24 07:37:40;;;;;;;3.67;2.08;;;;;;;-145.52;100.00;57022.44;5072530;28;20388;-61
2022/05/24 07:45:50;;;;;;;3.05;1.73;;;;;;;-145.52;100.00;57022.44;5072753;28;20116;-60
2022/05/24 07:48:18;;;;;;;5.03;2.08;;;;;;;-145.52;100.00;57022.44;5072378;28;20369;-60
2022/05/24 07:50:44;;;;;;;6.22;1.88;;;;;;;-145.52;100.00;57022.44;5071138;28;20472;-60
2022/05/24 07:53:10;;;;;;;5.28;2.15;;;;;;;-145.52;100.00;57022.44;5071471;28;20044;-60
2022/05/24 07:55:37;;;;;;;6.45;2.40;;;;;;;-145.52;100.00;57022.44;5070558;28;20033;-60
2022/05/24 07:58:03;;;;;;;6.07;1.70;;;;;;;-145.52;100.00;57022.44;5070707;28;20131;-60
2022/05/24 08:00:29;;;;;;;3.53;1.90;;;;;;;-145.52;100.00;57022.44;5070896;28;20414;-61
2022/05/24 08:02:55;;;;;;;7.15;1.95;;;;;;;-145.52;100.00;57022.44;5036594;28;20469;-61
2022/05/24 08:05:22;;;;;;;7.82;2.42;;;;;;;-145.52;100.00;57022.44;5070309;28;20031;-60
2022/05/24 08:07:51;;;;;;;8.13;2.40;;;;;;;-145.52;100.00;57022.44;5070100;28;20488;-60
2022/05/24 08:10:17;;;;;;;7.28;2.50;;;;;;;-145.52;100.00;57022.44;5070090;28;20152;-60
2022/05/24 08:12:43;;;;;;;4.70;2.45;;;;;;;-145.52;100.00;57022.44;5073499;28;20028;-60
2022/05/24 08:15:10;;;;;;;4.15;2.33;;;;;;;-145.52;100.00;57022.44;5050992;28;20044;-60
2022/05/24 08:17:36;;;;;;;5.38;2.38;;;;;;;-145.52;100.00;57022.44;5057720;28;20054;-60
2022/05/24 08:20:03;;;;;;;3.28;2.35;;;;;;;-145.52;100.00;57022.44;5057798;28;20437;-60
2022/05/24 08:22:28;;;;;;;9.18;2.25;;;;;;;-145.52;100.00;57022.44;5050795;28;20029;-60
2022/05/24 08:24:54;;;;;;;3.83;2.35;;;;;;;-145.52;100.00;57022.44;5074173;28;20033;-61
2022/05/24 08:27:19;;;;;;;6.90;2.42;;;;;;;-145.52;100.00;57022.44;5071699;28;20105;-60
2022/05/24 08:29:45;;;;;;;4.35;2.40;;;;;;;-145.52;100.00;57022.44;5075384;28;20025;-61
2022/05/24 08:32:11;;;;;;;3.45;2.63;;;;;;;-145.52;100.00;57022.44;5074150;28;20043;-60
2022/05/24 08:34:38;;;;;;;4.75;2.55;;;;;;;-145.52;100.00;57022.44;5074035;28;20031;-62
2022/05/24 08:37:04;;;;;;;4.38;2.33;;;;;;;-145.52;100.00;57022.44;5057374;28;20113;-60
2022/05/24 08:39:30;;;;;;;4.10;2.30;;;;;;;-145.52;100.00;57022.44;5056494;28;20196;-60
2022/05/24 08:42:14;;;;;;;4.90;2.30;;;;;;;-145.52;100.00;57022.44;5057370;28;20024;-60
2022/05/24 08:50:20;;;;;;;3.97;2.58;;;;;;;-145.52;100.00;57022.44;5072457;28;20479;-60
2022/05/24 08:53:09;;;;;;;3.50;2.75;;;;;;;-145.52;100.00;57022.44;5074879;28;20032;-61
2022/05/24 08:55:37;;;;;;;3.60;2.42;;;;;;;-145.52;100.00;57022.44;5074290;28;20712;-62
2022/05/24 08:58:05;;;;;;;2.95;2.35;;;;;;;-145.52;100.00;57022.44;5073527;28;20151;-60
2022/05/24 09:00:35;;;;;;;5.90;2.80;;;;;;;-145.52;100.00;57022.44;5050461;28;20417;-60
2022/05/24 09:03:05;;;;;;;4.93;2.60;;;;;;;-145.52;100.00;57022.44;5071158;28;20112;-61
2022/05/24 09:05:38;;;;;;;5.35;2.78;;;;;;;-145.52;100.00;57022.44;5074727;28;20035;-61
2022/05/24 09:08:33;;;;;;;7.15;2.97;;;;;;;-145.52;100.00;57022.44;5071344;28;20024;-60
2022/05/24 09:11:09;;;;;;;4.65;3.15;;;;;;;-145.52;100.00;57022.44;5073514;28;20083;-61
2022/05/24 09:14:01;;;;;;;3.67;2.47;;;;;;;-145.52;100.00;57022.44;5073437;28;20058;-62
2022/05/24 09:16:41;;;;;;;3.30;2.40;;;;;;;-145.52;100.00;57022.44;5071442;28;20115;-61
2022/05/24 09:19:19;;;;;;;4.07;2.65;;;;;;;-145.52;100.00;57022.44;5071586;28;20021;-61
2022/05/24 09:21:47;;;;;;;3.13;2.20;;;;;;;-145.52;100.00;57022.44;5071301;28;20036;-62
2022/05/24 09:24:35;;;;;;;5.70;2.95;;;;;;;-145.52;100.00;57022.44;5072571;28;20166;-60
2022/05/24 09:27:10;;;;;;;4.18;2.47;;;;;;;-145.52;100.00;57022.44;5070388;28;20043;-61
2022/05/24 09:29:52;;;;;;;4.13;2.28;;;;;;;-145.52;100.00;57022.44;5073059;28;20029;-62
2022/05/24 09:32:18;;;;;;;6.07;3.07;;;;;;;-145.52;100.00;57022.44;5072920;28;20013;-61
2022/05/24 09:34:44;;;;;;;5.10;2.65;;;;;;;-145.52;100.00;57022.44;5074272;28;20273;-61
2022/05/24 09:37:26;;;;;;;4.10;2.70;;;;;;;-145.52;100.00;57022.44;5074111;28;20029;-60
2022/05/24 09:40:23;;;;;;;4.28;2.88;;;;;;;-145.52;100.00;57022.44;5071772;28;20036;-60
2022/05/24 09:42:50;;;;;;;8.77;3.22;;;;;;;-145.52;100.00;57022.44;5071451;28;20070;-60
2022/05/24 09:45:23;;;;;;;3.90;2.50;;;;;;;-145.52;100.00;57022.44;5073201;28;20028;-60
2022/05/24 09:47:58;;;;;;;5.35;3.28;;;;;;;-145.52;100.00;57022.44;5074266;28;20439;-60
2022/05/24 09:50:35;;;;;;;5.95;3.40;;;;;;;-145.52;100.00;57022.44;5075464;28;20029;-59
2022/05/24 09:53:06;;;;;;;6.15;3.60;;;;;;;-145.52;100.00;57022.44;5073061;28;20033;-61
2022/05/24 09:55:49;;;;;;;9.38;3.50;;;;;;;-145.52;100.00;57022.44;5072600;28;20028;-62
2022/05/24 09:58:32;;;;;;;8.80;4.15;;;;;;;-145.52;100.00;57022.44;5053744;28;20041;-61
2022/05/24 10:01:08;;;;;;;4.63;2.72;;;;;;;-145.52;100.00;57022.44;5062668;28;20518;-61
2022/05/24 10:03:35;;;;;;;9.80;3.50;;;;;;;-145.52;100.00;57022.44;5074395;28;20043;-62
2022/05/24 10:06:06;;;;;;;7.40;3.30;;;;;;;-145.52;100.00;57022.44;5073069;28;20468;-62
2022/05/24 10:09:19;;;;;;;6.97;3.20;;;;;;;-145.52;100.00;57022.44;5053389;28;20033;-61
2022/05/24 10:12:04;;;;;;;3.85;2.72;;;;;;;-145.52;100.00;57022.44;5067590;28;20055;-61
2022/05/24 10:14:38;;;;;;;4.05;2.97;;;;;;;-145.52;100.00;57022.44;5071623;28;20028;-62
2022/05/24 10:17:28;;;;;;;5.22;2.70;;;;;;;-145.52;100.00;57022.44;5073299;28;20036;-63
2022/05/24 10:20:07;;;;;;;3.20;2.42;;;;;;;-145.52;100.00;57022.44;5071000;28;20040;-62
2022/05/24 10:23:08;;;;;;;4.28;2.70;;;;;;;-145.52;100.00;57022.44;5056298;28;20040;-63
2022/05/24 10:25:37;;;;;;;2.65;2.42;;;;;;;-145.52;100.00;57022.44;5049392;28;20484;-63
2022/05/24 10:28:21;;;;;;;2.63;2.10;;;;;;;-145.52;100.00;57022.44;5072543;28;20047;-61
2022/05/24 10:31:28;;;;;;;5.72;2.38;;;;;;;-145.52;100.00;57022.44;5073194;28;20392;-61
2022/05/24 10:40:12;;;;;;;3.63;2.25;;;;;;;-145.52;100.00;57022.44;5072682;28;20043;-62
2022/05/24 10:42:49;;;;;;;4.03;2.40;;;;;;;-145.52;100.00;57022.44;5070044;28;20028;-62
2022/05/24 10:45:49;;;;;;;5.53;2.30;;;;;;;-145.52;100.00;57022.44;5070692;28;20051;-62
2022/05/24 10:48:15;;;;;;;4.05;2.25;;;;;;;-145.52;100.00;57022.44;5073118;28;20124;-62
2022/05/24 10:50:46;;;;;;;6.13;2.25;;;;;;;-145.52;100.00;57022.44;5071949;28;20028;-63
2022/05/24 10:53:44;;;;;;;4.57;2.95;;;;;;;-145.52;100.00;57022.44;5072617;28;20120;-62
2022/05/24 10:56:24;;;;;;;4.50;2.42;;;;;;;-145.52;100.00;57022.44;5072886;28;20078;-62
2022/05/24 10:58:51;;;;;;;3.28;1.92;;;;;;;-145.52;100.00;57022.44;5070712;28;20053;-63
2022/05/24 11:01:32;;;;;;;3.80;1.98;;;;;;;-145.52;100.00;57022.44;5054595;28;20048;-63
2022/05/24 11:04:04;;;;;;;3.50;2.25;;;;;;;-145.52;100.00;57022.44;5071825;28;20134;-62
2022/05/24 11:06:37;;;;;;;7.13;2.20;;;;;;;-145.52;100.00;57022.44;5067644;28;20025;-62
2022/05/24 11:09:09;;;;;;;5.47;2.00;;;;;;;;;;5087413;27;1353775;-63
2022/05/24 11:11:52;;;;;;;4.32;2.13;;;;;;;;;;5120359;27;20031;-62
2022/05/24 11:14:35;;;;;;;3.40;2.10;;;;;;;;;;5089293;28;20024;-63
2022/05/24 11:17:01;;;;;;;5.70;2.65;;;;;;;;;;5093868;28;20025;-62
2022/05/24 11:19:31;;;;;;;3.80;2.13;;;;;;;;;;5091732;28;20025;-62
2022/05/24 11:22:00;;;;;;;4.32;2.20;;;;;;;;;;5094253;28;20031;-63
2022/05/24 11:24:44;;;;;;;2.88;2.05;;;;;;;;;;5089840;28;20048;-61
2022/05/24 11:27:13;;;;;;;3.95;2.50;;;;;;;;;;5091560;28;20035;-61
2022/05/24 11:29:55;;;;;;;5.93;2.70;;;;;;;;;;5086677;28;20029;-61
2022/05/24 11:32:36;;;;;;;8.07;3.25;;;;;;;;;;5082819;28;20106;-61
2022/05/24 11:35:10;;;;;;;4.43;2.50;;;;;;;;;;5083660;28;20074;-60
2022/05/24 11:37:37;;;;;;;3.42;2.95;;;;;;;;;;5086531;28;20020;-60
2022/05/24 11:40:20;;;;;;;5.30;2.90;;;;;;;;;;5091433;28;20032;-62
2022/05/24 11:42:47;;;;;;;3.33;2.40;;;;;;;;;;5091464;28;20024;-60
2022/05/24 11:45:31;;;;;;;7.50;3.05;;;;;;;;;;5075504;28;20131;-60
2022/05/24 11:48:06;;;;;;;5.60;3.13;;;;;;;;;;5085751;28;20537;-60
2022/05/24 11:50:31;;;;;;;6.43;2.92;;;;;;;;;;5091230;28;20090;-60
2022/05/24 11:53:00;;;;;;;3.70;2.70;;;;;;;;;;5091809;28;20024;-60
2022/05/24 11:55:46;;;;;;;6.95;3.25;;;;;;;;;;5083382;28;20016;-60
2022/05/24 11:58:20;;;;;;;4.47;2.80;;;;;;;;;;5095592;28;20027;-61
2022/05/24 12:00:54;;;;;;;4.50;2.38;;;;;;;;;;5092197;28;20051;-61
2022/05/24 12:09:08;;;;;;;5.75;3.40;;;;;;;;;;5100688;28;20058;-61
2022/05/24 12:11:34;;;;;;;5.30;2.60;;;;;;;;;;5093228;28;20035;-60
2022/05/24 12:14:29;;;;;;;5.88;2.28;;;;;;;;;;5081454;28;20479;-60
2022/05/24 12:16:54;;;;;;;4.32;2.40;;;;;;;;;;5078091;28;20032;-61
2022/05/24 12:19:37;;;;;;;6.90;2.53;;;;;;;;;;5082074;28;20088;-60
2022/05/24 12:22:06;;;;;;;4.15;2.20;;;;;;;;;;5077375;28;20254;-62
2022/05/24 12:24:41;;;;;;;4.13;2.13;;;;;;;;;;5091620;28;20474;-61